Time;durP1;ratioP1;P1;durP2;ratioP2;P2;SDS_P1;SDS_P2;PMS_P1;PMS_P2;Temp;Humidity;BMP_temperature;BMP_pressure;BME280_temperature;BME280_humidity;BME280_pressure;Samples;Min_cycle;Max_cycle;Signal;HPM_P1;HPM_P2
2022/11/23 00:00:42;;;;;;;29.45;18.20;;;;;;;1.27;77.64;100597.80;1740075;82;26490;-61
2022/11/23 00:03:14;;;;;;;28.12;17.15;;;;;;;1.28;77.55;100603.49;1740010;82;25900;-62
2022/11/23 00:05:41;;;;;;;30.08;17.90;;;;;;;1.28;77.59;100602.17;1739939;82;25808;-62
2022/11/23 00:08:08;;;;;;;29.45;17.67;;;;;;;1.30;77.58;100604.27;1740152;82;25745;-61
2022/11/23 00:10:34;;;;;;;31.45;17.67;;;;;;;1.30;77.40;100602.47;1735581;81;25936;-61
2022/11/23 00:13:01;;;;;;;31.90;19.87;;;;;;;1.30;77.36;100604.27;1731513;81;25485;-61
2022/11/23 00:15:28;;;;;;;30.72;18.65;;;;;;;1.31;77.64;100594.03;1731405;82;28231;-61
2022/11/23 00:17:54;;;;;;;31.17;18.87;;;;;;;1.34;77.96;100598.73;1741197;80;25808;-60
2022/11/23 00:20:21;;;;;;;30.17;18.95;;;;;;;1.38;78.06;100595.45;1741778;82;25670;-61
2022/11/23 00:22:48;;;;;;;30.37;18.67;;;;;;;1.44;78.20;100596.89;1741596;81;25873;-61
2022/11/23 00:25:14;;;;;;;33.33;20.68;;;;;;;1.50;78.40;100589.95;1742049;81;25675;-61
2022/11/23 00:27:41;;;;;;;31.80;18.82;;;;;;;1.54;78.60;100595.02;1741699;81;27463;-61
2022/11/23 00:30:11;;;;;;;30.20;18.45;;;;;;;1.58;78.62;100582.44;1741720;81;25772;-61
2022/11/23 00:32:37;;;;;;;30.20;18.90;;;;;;;1.59;78.88;100582.83;1741530;82;25742;-62
2022/11/23 00:35:07;;;;;;;30.20;18.62;;;;;;;1.62;79.09;100579.99;1738484;80;25915;-61
2022/11/23 00:37:34;;;;;;;24.30;16.85;;;;;;;1.70;79.11;100586.22;1733854;82;25745;-61
2022/11/23 00:40:01;;;;;;;23.98;16.10;;;;;;;1.77;79.29;100588.91;1733542;82;28345;-61
2022/11/23 00:42:27;;;;;;;30.88;16.65;;;;;;;1.82;79.41;100586.01;1711542;82;25569;-61
2022/11/23 00:44:54;;;;;;;30.95;17.00;;;;;;;1.79;79.58;100585.72;1732365;82;25741;-61
2022/11/23 00:47:20;;;;;;;25.20;16.75;;;;;;;1.73;80.25;100583.41;1731829;82;25805;-62
2022/11/23 00:49:47;;;;;;;34.55;16.57;;;;;;;1.72;80.22;100587.84;1722255;81;26034;-62
2022/11/23 00:52:16;;;;;;;25.90;16.40;;;;;;;1.74;80.66;100586.45;1708314;81;27480;-62
2022/11/23 00:54:43;;;;;;;34.92;17.82;;;;;;;1.77;80.89;100586.27;1707980;82;25781;-61
2022/11/23 00:57:10;;;;;;;23.90;16.77;;;;;;;1.77;81.12;100585.42;1709620;82;25741;-62
2022/11/23 00:59:37;;;;;;;26.55;15.83;;;;;;;1.75;81.73;100588.62;1715484;82;25789;-62
2022/11/23 01:02:03;;;;;;;20.45;14.98;;;;;;;1.78;82.15;100589.78;1708091;82;25752;-62
2022/11/23 01:04:31;;;;;;;26.52;15.38;;;;;;;1.78;82.58;100592.44;1708554;82;27458;-61
2022/11/23 01:06:59;;;;;;;25.20;17.02;;;;;;;1.76;83.07;100582.38;1711506;82;25780;-62
2022/11/23 01:09:26;;;;;;;24.25;15.65;;;;;;;1.78;82.72;100591.95;1722072;82;25712;-62
2022/11/23 01:11:53;;;;;;;25.35;14.73;;;;;;;1.85;82.73;100594.65;1714041;82;25874;-62
2022/11/23 01:14:23;;;;;;;20.72;14.18;;;;;;;1.85;83.08;100599.11;1722049;80;25748;-62
2022/11/23 01:16:50;;;;;;;30.50;14.83;;;;;;;1.86;82.89;100592.39;1727867;81;27623;-62
2022/11/23 01:19:20;;;;;;;19.42;13.90;;;;;;;1.90;82.72;100591.75;1733593;82;25729;-62
2022/11/23 01:21:49;;;;;;;32.03;17.00;;;;;;;1.91;83.73;100584.66;1733769;82;25709;-62
2022/11/23 01:24:20;;;;;;;23.90;14.23;;;;;;;1.93;83.21;100578.80;1734240;82;26015;-62
2022/11/23 01:26:54;;;;;;;22.98;15.55;;;;;;;1.92;83.45;100585.05;1733740;81;25768;-62
2022/11/23 01:29:22;;;;;;;26.60;15.68;;;;;;;1.90;83.84;100577.16;1734087;82;27407;-62
2022/11/23 01:31:49;;;;;;;26.27;15.78;;;;;;;1.91;83.88;100568.74;1733613;81;25808;-61
2022/11/23 01:34:17;;;;;;;29.52;15.80;;;;;;;1.96;83.65;100568.00;1733489;81;25789;-62
2022/11/23 01:36:44;;;;;;;31.57;17.45;;;;;;;1.97;83.80;100556.45;1734804;80;26468;-61
2022/11/23 01:39:12;;;;;;;24.00;15.90;;;;;;;2.01;83.72;100548.72;1734139;82;25813;-62
2022/11/23 01:41:42;;;;;;;28.83;17.30;;;;;;;2.06;83.65;100549.30;1734058;82;27614;-62
2022/11/23 01:44:32;;;;;;;23.45;16.15;;;;;;;2.13;83.66;100549.33;1732573;82;25850;-62
2022/11/23 01:47:03;;;;;;;26.97;15.85;;;;;;;2.19;83.83;100549.00;1727358;82;25814;-61
2022/11/23 01:49:35;;;;;;;27.30;17.07;;;;;;;2.27;83.99;100549.03;1721954;83;25839;-62
2022/11/23 01:52:08;;;;;;;23.10;15.80;;;;;;;2.25;84.32;100541.62;1714205;81;26354;-62
2022/11/23 01:54:48;;;;;;;26.05;16.02;;;;;;;2.25;83.92;100538.48;1709032;81;27478;-61
2022/11/23 01:57:26;;;;;;;27.52;16.10;;;;;;;2.26;83.95;100535.37;1707757;84;25784;-61
2022/11/23 01:59:55;;;;;;;21.12;14.38;;;;;;;2.25;84.10;100533.66;1707982;82;25638;-61
2022/11/23 02:02:22;;;;;;;24.85;14.63;;;;;;;2.23;83.95;100536.86;1708247;84;25738;-61
2022/11/23 02:04:53;;;;;;;28.98;15.45;;;;;;;2.21;84.05;100534.30;1707862;84;25784;-60
2022/11/23 02:07:23;;;;;;;23.67;16.45;;;;;;;2.21;84.10;100526.34;1708179;82;27588;-61
2022/11/23 02:09:52;;;;;;;29.72;16.37;;;;;;;2.25;84.67;100522.55;1707925;82;25812;-61
2022/11/23 02:12:18;;;;;;;20.85;15.00;;;;;;;2.26;84.99;100530.06;1708129;84;25770;-61
2022/11/23 02:14:46;;;;;;;23.77;16.90;;;;;;;2.22;85.57;100529.84;1708388;82;26486;-61
2022/11/23 02:17:14;;;;;;;24.37;15.60;;;;;;;2.21;85.61;100543.59;1741409;81;25737;-61
2022/11/23 02:19:58;;;;;;;26.00;17.15;;;;;;;2.19;85.73;100543.69;1758800;81;27744;-61
2022/11/23 02:22:58;;;;;;;30.43;16.45;;;;;;;2.15;85.83;100535.51;1758785;81;43944;-61
2022/11/23 02:25:44;;;;;;;25.17;16.82;;;;;;;2.13;86.27;100529.91;1758172;81;25701;-61
2022/11/23 02:28:24;;;;;;;25.72;17.40;;;;;;;2.10;86.55;100529.63;1758064;81;25804;-61
2022/11/23 02:30:53;;;;;;;32.33;18.02;;;;;;;2.10;86.84;100526.09;1758766;81;25785;-61
2022/11/23 02:33:22;;;;;;;34.73;18.15;;;;;;;2.08;87.29;100533.28;1758715;81;28704;-61
2022/11/23 02:35:56;;;;;;;23.47;16.17;;;;;;;2.09;86.92;100526.58;1757711;81;26464;-61
2022/11/23 02:38:26;;;;;;;;;;;;;;;2.12;87.21;100533.02;1758770;81;25839;-61
2022/11/23 02:40:53;;;;;;;22.13;15.28;;;;;;;2.17;86.78;100536.28;1734899;81;25852;-61
2022/11/23 02:43:22;;;;;;;28.40;16.60;;;;;;;2.17;86.75;100527.00;1756520;81;25802;-61
2022/11/23 02:45:54;;;;;;;24.67;16.10;;;;;;;2.22;86.55;100525.86;1741031;81;27425;-61
2022/11/23 02:48:22;;;;;;;30.68;18.07;;;;;;;2.26;86.23;100530.06;1738631;81;25775;-61
2022/11/23 02:50:49;;;;;;;28.95;16.48;;;;;;;2.32;86.52;100535.00;1748139;81;25736;-61
2022/11/23 02:53:17;;;;;;;23.38;16.60;;;;;;;2.42;86.92;100530.03;1729600;80;25779;-61
2022/11/23 02:55:45;;;;;;;29.95;16.97;;;;;;;2.49;86.69;100535.36;1752001;80;25758;-62
2022/11/23 02:58:11;;;;;;;22.07;16.20;;;;;;;2.51;86.34;100529.46;1751550;81;27469;-61
2022/11/23 03:00:38;;;;;;;24.43;16.42;;;;;;;2.54;86.39;100521.81;1751833;80;25769;-62
2022/11/23 03:03:06;;;;;;;29.00;17.42;;;;;;;2.58;86.23;100522.00;1751849;81;26154;-61
2022/11/23 03:05:33;;;;;;;29.87;18.25;;;;;;;2.63;86.29;100519.45;1752012;81;26542;-62
2022/11/23 03:08:02;;;;;;;28.98;18.82;;;;;;;2.63;86.03;100517.28;1751352;81;27290;-62
2022/11/23 03:10:30;;;;;;;30.45;18.92;;;;;;;2.61;85.99;100508.55;1751939;81;27512;-62
2022/11/23 03:12:57;;;;;;;31.00;19.67;;;;;;;2.56;86.50;100510.15;1751529;81;25785;-62
2022/11/23 03:15:25;;;;;;;29.32;19.10;;;;;;;2.54;86.75;100499.24;1752047;81;25795;-62
2022/11/23 03:17:52;;;;;;;30.20;20.00;;;;;;;2.49;87.22;100495.53;1769787;80;26534;-61
2022/11/23 03:20:20;;;;;;;29.98;18.30;;;;;;;2.43;87.49;100503.84;1770736;80;25489;-61
2022/11/23 03:22:48;;;;;;;34.88;20.90;;;;;;;2.41;88.13;100499.11;1770863;81;28277;-61
2022/11/23 03:25:17;;;;;;;34.85;21.90;;;;;;;2.40;88.25;100495.59;1770765;81;25743;-61
2022/11/23 03:27:44;;;;;;;35.48;20.72;;;;;;;2.43;88.42;100503.38;1770597;80;25663;-62
2022/11/23 03:30:14;;;;;;;37.50;21.68;;;;;;;2.41;88.00;100504.42;1770620;79;25792;-62
2022/11/23 03:32:41;;;;;;;35.40;22.30;;;;;;;2.41;88.35;100513.23;1770926;81;25700;-62
2022/11/23 03:35:09;;;;;;;31.17;21.27;;;;;;;2.37;88.45;100509.52;1770759;80;28300;-62
2022/11/23 03:37:37;;;;;;;37.20;20.82;;;;;;;2.39;88.84;100519.58;1785480;80;25467;-61
2022/11/23 03:40:06;;;;;;;33.50;20.65;;;;;;;2.39;88.67;100513.78;1786482;80;25796;-61
2022/11/23 03:42:51;;;;;;;32.88;21.50;;;;;;;2.41;89.03;100520.36;1786369;80;26600;-62
2022/11/23 03:45:18;;;;;;;32.98;19.77;;;;;;;2.39;88.78;100520.91;1761920;80;25620;-61
2022/11/23 03:47:44;;;;;;;29.37;18.10;;;;;;;2.39;88.94;100522.23;1727684;82;28488;-62
2022/11/23 03:50:12;;;;;;;30.00;19.60;;;;;;;2.40;89.17;100505.37;1780443;79;25790;-62
2022/11/23 03:52:39;;;;;;;31.95;19.10;;;;;;;2.45;89.24;100511.25;1803768;79;25703;-62
2022/11/23 03:55:07;;;;;;;29.95;18.07;;;;;;;2.47;89.20;100503.56;1750451;81;25727;-62
2022/11/23 03:57:34;;;;;;;31.62;19.20;;;;;;;2.52;89.42;100496.66;1776660;80;25814;-61
2022/11/23 04:00:01;;;;;;;30.05;18.05;;;;;;;2.55;89.16;100500.47;1750450;81;28167;-62
2022/11/23 04:02:28;;;;;;;26.55;17.60;;;;;;;2.57;89.27;100500.37;1750344;81;25728;-61
2022/11/23 04:04:57;;;;;;;26.60;18.02;;;;;;;2.56;89.18;100507.48;1749770;81;25701;-62
2022/11/23 04:07:32;;;;;;;27.15;17.37;;;;;;;2.59;88.94;100513.09;1750279;81;25834;-61
2022/11/23 04:09:58;;;;;;;31.55;19.52;;;;;;;2.60;89.00;100503.69;1750465;81;25807;-61
2022/11/23 04:12:27;;;;;;;26.02;16.95;;;;;;;2.65;88.88;100506.07;1750159;81;27478;-61
2022/11/23 04:14:55;;;;;;;29.10;17.65;;;;;;;2.68;88.58;100500.59;1750418;81;25883;-61
2022/11/23 04:17:22;;;;;;;27.30;17.40;;;;;;;2.72;88.46;100506.11;1776175;80;25855;-61
2022/11/23 04:19:49;;;;;;;25.90;17.02;;;;;;;2.73;88.21;100491.02;1786208;80;25821;-60
2022/11/23 04:22:17;;;;;;;26.37;16.95;;;;;;;2.76;88.25;100485.53;1787123;80;25768;-61
2022/11/23 04:24:45;;;;;;;27.32;18.30;;;;;;;2.77;88.24;100485.42;1786665;80;27612;-61
2022/11/23 04:27:12;;;;;;;26.87;17.45;;;;;;;2.79;88.21;100480.01;1786824;80;25978;-61
2022/11/23 04:29:39;;;;;;;24.52;15.98;;;;;;;2.79;88.19;100472.91;1786585;79;26318;-62
2022/11/23 04:32:07;;;;;;;27.65;16.75;;;;;;;2.76;88.28;100471.76;1781911;80;25796;-61
2022/11/23 04:34:33;;;;;;;25.45;15.83;;;;;;;2.73;88.50;100481.72;1778612;80;25802;-61
2022/11/23 04:37:02;;;;;;;22.05;14.83;;;;;;;2.73;88.78;100475.08;1760057;80;28339;-61
2022/11/23 04:39:30;;;;;;;26.05;16.12;;;;;;;2.71;88.74;100483.60;1746288;80;25935;-61
2022/11/23 04:42:16;;;;;;;24.50;15.88;;;;;;;2.72;88.72;100490.17;1747010;81;25633;-61
2022/11/23 04:44:45;;;;;;;28.17;16.37;;;;;;;2.75;88.59;100484.66;1743426;82;25821;-61
2022/11/23 04:47:13;;;;;;;25.20;15.00;;;;;;;2.80;88.30;100487.91;1741195;81;25801;-62
2022/11/23 04:49:40;;;;;;;22.45;15.28;;;;;;;2.84;87.96;100479.27;1735500;80;27485;-62
2022/11/23 04:52:08;;;;;;;23.47;15.25;;;;;;;2.86;87.95;100469.87;1725826;83;25945;-62
2022/11/23 04:54:36;;;;;;;28.38;16.27;;;;;;;2.90;87.59;100463.44;1738878;81;25731;-61
2022/11/23 04:57:05;;;;;;;23.10;14.83;;;;;;;2.93;87.56;100471.20;1740177;81;25934;-62
2022/11/23 04:59:32;;;;;;;24.12;14.07;;;;;;;2.97;87.40;100470.07;1740207;82;25784;-61
2022/11/23 05:01:59;;;;;;;25.62;15.63;;;;;;;2.98;87.21;100468.64;1740014;82;27025;-61
2022/11/23 05:04:38;;;;;;;28.65;14.73;;;;;;;3.01;87.18;100461.43;1740019;82;25830;-61
2022/11/23 05:07:05;;;;;;;25.15;16.35;;;;;;;3.01;87.02;100464.93;1740366;82;25761;-61
2022/11/23 05:09:33;;;;;;;24.77;15.45;;;;;;;3.06;87.19;100465.97;1740200;82;25888;-61
2022/11/23 05:12:04;;;;;;;25.80;15.72;;;;;;;3.11;87.08;100462.57;1739578;82;25704;-61
2022/11/23 05:14:31;;;;;;;25.23;15.45;;;;;;;3.17;87.00;100464.84;1740287;82;27469;-61
2022/11/23 05:16:58;;;;;;;24.02;15.35;;;;;;;3.19;87.01;100457.63;1757540;80;25857;-60
2022/11/23 05:19:26;;;;;;;23.20;14.70;;;;;;;3.25;86.88;100453.24;1773167;80;25806;-61
2022/11/23 05:21:54;;;;;;;22.90;14.35;;;;;;;3.29;86.81;100450.78;1772768;80;26507;-61
2022/11/23 05:24:21;;;;;;;23.00;14.80;;;;;;;3.38;86.87;100451.15;1773110;80;25775;-60
2022/11/23 05:26:49;;;;;;;24.92;15.45;;;;;;;3.44;86.97;100442.31;1770545;80;27559;-61
2022/11/23 05:29:16;;;;;;;27.77;15.63;;;;;;;3.56;87.06;100445.98;1772850;80;25713;-61
2022/11/23 05:31:43;;;;;;;23.80;15.28;;;;;;;3.62;86.73;100446.06;1772864;80;25802;-60
2022/11/23 05:34:12;;;;;;;22.32;14.25;;;;;;;3.68;86.47;100452.77;1772529;80;25822;-61
2022/11/23 05:36:40;;;;;;;20.32;13.83;;;;;;;3.75;86.59;100447.45;1770568;80;26366;-61
2022/11/23 05:39:08;;;;;;;19.48;13.10;;;;;;;3.76;85.96;100451.33;1767064;81;27476;-61
2022/11/23 05:41:36;;;;;;;24.72;13.20;;;;;;;3.83;86.29;100459.77;1766518;81;25609;-61
2022/11/23 05:44:05;;;;;;;21.17;12.85;;;;;;;3.88;86.00;100458.14;1759048;80;25768;-61
2022/11/23 05:46:32;;;;;;;22.17;14.30;;;;;;;3.95;86.13;100454.12;1707788;82;25861;-61
2022/11/23 05:48:59;;;;;;;21.42;14.33;;;;;;;4.01;86.21;100457.69;1708977;82;25728;-61
2022/11/23 05:51:28;;;;;;;22.67;14.80;;;;;;;4.07;85.93;100459.09;1733961;82;27502;-61
2022/11/23 05:53:57;;;;;;;23.07;15.43;;;;;;;4.11;85.70;100453.96;1731909;81;25815;-61
2022/11/23 05:56:26;;;;;;;26.57;15.50;;;;;;;4.12;84.74;100455.67;1726603;81;25808;-61
2022/11/23 05:58:58;;;;;;;21.35;15.05;;;;;;;4.12;84.18;100456.12;1726938;81;25801;-61
2022/11/23 06:01:25;;;;;;;25.85;14.50;;;;;;;4.07;83.60;100461.30;1726212;82;26555;-61
2022/11/23 06:03:53;;;;;;;21.68;14.68;;;;;;;4.01;83.26;100456.86;1733370;82;29592;-61
2022/11/23 06:06:20;;;;;;;22.17;15.05;;;;;;;3.96;83.15;100457.62;1675875;83;25706;-61
2022/11/23 06:08:47;;;;;;;22.42;15.32;;;;;;;3.89;83.25;100455.37;1671441;85;25714;-61
2022/11/23 06:11:15;;;;;;;23.77;15.35;;;;;;;3.89;83.26;100459.85;1672548;85;25799;-61
2022/11/23 06:13:47;;;;;;;24.32;15.85;;;;;;;3.85;83.22;100455.21;1673963;85;25738;-61
2022/11/23 06:16:15;;;;;;;28.27;17.42;;;;;;;3.84;83.32;100453.96;1675908;83;26635;-60
2022/11/23 06:18:44;;;;;;;24.07;15.75;;;;;;;3.83;83.46;100454.91;1676817;85;25821;-61
2022/11/23 06:21:10;;;;;;;27.30;16.55;;;;;;;3.82;83.26;100450.53;1678200;85;25582;-61
2022/11/23 06:23:38;;;;;;;24.67;15.53;;;;;;;3.85;83.33;100454.34;1677686;85;25827;-60
2022/11/23 06:26:06;;;;;;;25.00;15.85;;;;;;;3.86;83.48;100439.59;1678148;85;25905;-60
2022/11/23 06:28:35;;;;;;;25.20;15.60;;;;;;;3.91;83.96;100440.62;1659149;85;29207;-60
2022/11/23 06:31:05;;;;;;;21.55;13.68;;;;;;;3.95;84.13;100436.81;1678002;85;25858;-60
2022/11/23 06:33:33;;;;;;;19.95;13.72;;;;;;;4.02;84.85;100438.11;1678099;84;25987;-61
2022/11/23 06:36:03;;;;;;;23.05;13.15;;;;;;;4.03;84.61;100435.83;1672931;85;25739;-61
2022/11/23 06:38:31;;;;;;;23.42;14.55;;;;;;;4.10;84.84;100444.72;1695222;83;25953;-61
2022/11/23 06:41:01;;;;;;;25.27;14.23;;;;;;;4.15;84.83;100442.12;1696744;84;27533;-60
2022/11/23 06:43:30;;;;;;;23.32;13.58;;;;;;;4.21;84.87;100439.05;1696829;84;25784;-61
2022/11/23 06:45:57;;;;;;;19.95;12.55;;;;;;;4.28;85.16;100439.49;1679862;84;25837;-61
2022/11/23 06:48:26;;;;;;;24.40;14.23;;;;;;;4.35;85.17;100439.94;1701600;83;25809;-61
2022/11/23 06:50:53;;;;;;;22.85;14.18;;;;;;;4.35;84.78;100441.27;1694749;82;25810;-61
2022/11/23 06:53:21;;;;;;;19.70;12.35;;;;;;;4.40;84.91;100432.48;1671070;85;27489;-61
2022/11/23 06:55:50;;;;;;;20.48;11.80;;;;;;;4.49;85.16;100429.18;1671528;84;25781;-61
2022/11/23 06:58:18;;;;;;;18.48;12.43;;;;;;;4.58;85.14;100430.37;1671010;85;26584;-61
2022/11/23 07:00:45;;;;;;;18.10;12.63;;;;;;;4.62;84.93;100426.52;1669574;85;26601;-61
2022/11/23 07:03:22;;;;;;;19.62;12.88;;;;;;;4.68;84.98;100425.25;1629208;86;26645;-61
2022/11/23 07:05:51;;;;;;;17.85;12.23;;;;;;;4.74;84.76;100422.64;1641984;86;27304;-61
2022/11/23 07:08:19;;;;;;;18.67;11.50;;;;;;;4.77;84.56;100421.11;1696986;84;26158;-61
2022/11/23 07:10:46;;;;;;;17.75;11.15;;;;;;;4.80;84.74;100425.73;1696161;84;25746;-61
2022/11/23 07:13:15;;;;;;;22.67;11.93;;;;;;;4.79;84.60;100429.36;1696216;84;25844;-61
2022/11/23 07:15:42;;;;;;;18.52;11.38;;;;;;;4.79;84.67;100421.86;1695321;84;25887;-61
2022/11/23 07:18:11;;;;;;;17.82;11.22;;;;;;;4.86;84.98;100422.63;1716675;83;27561;-60
2022/11/23 07:20:40;;;;;;;18.55;11.88;;;;;;;4.92;85.00;100409.36;1716870;83;25840;-61
2022/11/23 07:23:10;;;;;;;18.20;12.05;;;;;;;4.96;84.77;100411.32;1716658;83;25865;-61
2022/11/23 07:25:39;;;;;;;19.92;13.83;;;;;;;4.97;84.51;100413.90;1692881;83;26942;-61
2022/11/23 07:28:07;;;;;;;18.55;11.53;;;;;;;4.96;84.37;100410.86;1716756;83;25878;-61
2022/11/23 07:30:35;;;;;;;18.05;11.95;;;;;;;5.00;84.54;100408.82;1716510;82;27445;-62
2022/11/23 07:33:08;;;;;;;19.25;11.53;;;;;;;4.99;84.39;100409.28;1716877;83;25567;-61
2022/11/23 07:35:39;;;;;;;21.90;11.22;;;;;;;5.05;84.63;100404.00;1715919;83;25840;-61
2022/11/23 07:38:08;;;;;;;22.60;12.20;;;;;;;5.08;84.82;100406.92;1759599;79;26426;-61
2022/11/23 07:40:39;;;;;;;18.67;11.45;;;;;;;5.14;84.95;100399.84;1786064;80;25517;-61
2022/11/23 07:43:09;;;;;;;17.77;11.80;;;;;;;5.17;84.78;100390.27;1786098;80;28213;-61
2022/11/23 07:45:36;;;;;;;18.67;11.93;;;;;;;5.17;84.63;100384.93;1770923;80;25740;-61
2022/11/23 07:48:08;;;;;;;15.70;11.12;;;;;;;5.15;84.64;100385.55;1767120;80;26389;-62
2022/11/23 07:50:37;;;;;;;15.03;10.08;;;;;;;5.17;84.65;100383.13;1748045;79;25797;-61
2022/11/23 07:53:06;;;;;;;16.52;11.05;;;;;;;5.22;84.49;100380.13;1743106;81;25818;-61
2022/11/23 07:55:34;;;;;;;17.42;10.90;;;;;;;5.20;84.48;100386.05;1750990;81;28281;-61
2022/11/23 07:58:01;;;;;;;16.75;11.00;;;;;;;5.20;84.68;100393.22;1750631;80;25762;-61
2022/11/23 08:00:29;;;;;;;16.50;11.60;;;;;;;5.22;84.77;100391.27;1750901;81;25838;-61
2022/11/23 08:02:58;;;;;;;18.85;11.78;;;;;;;5.25;84.67;100389.23;1750714;80;25971;-61
2022/11/23 08:05:25;;;;;;;16.12;10.85;;;;;;;5.29;84.86;100382.72;1750789;81;26379;-61
2022/11/23 08:07:59;;;;;;;18.98;12.03;;;;;;;5.33;84.31;100383.34;1750978;81;27423;-62
2022/11/23 08:10:29;;;;;;;18.87;11.30;;;;;;;5.34;84.62;100375.72;1732716;82;25753;-61
2022/11/23 08:13:04;;;;;;;18.62;11.08;;;;;;;5.35;84.74;100374.75;1716837;83;26602;-61
2022/11/23 08:15:32;;;;;;;16.50;10.58;;;;;;;5.36;84.73;100370.27;1717385;83;25908;-61
2022/11/23 08:18:02;;;;;;;17.45;10.78;;;;;;;5.37;84.83;100373.30;1716188;81;25994;-62
2022/11/23 08:20:30;;;;;;;17.60;10.53;;;;;;;5.39;84.81;100371.38;1720149;81;27628;-61
2022/11/23 08:22:58;;;;;;;16.95;10.40;;;;;;;5.43;84.77;100371.51;1750161;81;25717;-62
2022/11/23 08:25:27;;;;;;;12.68;9.48;;;;;;;5.51;84.82;100370.95;1753609;81;25784;-61
2022/11/23 08:27:57;;;;;;;14.75;9.73;;;;;;;5.52;84.64;100371.33;1740436;81;25802;-61
2022/11/23 08:30:25;;;;;;;13.18;8.90;;;;;;;5.57;84.71;100371.36;1740926;82;25813;-61
2022/11/23 08:32:52;;;;;;;13.78;9.43;;;;;;;5.62;84.79;100374.52;1741504;82;27457;-61
2022/11/23 08:35:19;;;;;;;13.95;8.98;;;;;;;5.69;84.76;100362.91;1741586;82;25766;-61
2022/11/23 08:37:47;;;;;;;17.02;10.13;;;;;;;5.69;84.83;100362.08;1754216;80;25730;-61
2022/11/23 08:40:15;;;;;;;15.70;10.82;;;;;;;5.68;84.81;100367.88;1761439;80;27200;-61
2022/11/23 08:42:42;;;;;;;17.82;10.50;;;;;;;5.70;84.71;100358.41;1760457;80;25767;-61
2022/11/23 08:45:10;;;;;;;16.48;10.53;;;;;;;5.69;84.74;100358.08;1753031;81;28525;-61
2022/11/23 08:47:37;;;;;;;15.18;9.83;;;;;;;5.67;84.84;100355.50;1747359;81;25763;-61
2022/11/23 08:50:06;;;;;;;17.62;10.35;;;;;;;5.68;85.05;100351.03;1724593;81;25775;-61
2022/11/23 08:52:32;;;;;;;16.77;10.68;;;;;;;5.67;85.03;100343.98;1748054;81;25800;-61
2022/11/23 08:55:00;;;;;;;15.03;10.82;;;;;;;5.68;85.07;100341.69;1725747;81;25798;-61
2022/11/23 08:57:28;;;;;;;15.75;10.20;;;;;;;5.73;85.08;100343.52;1732152;81;27650;-61
2022/11/23 08:59:55;;;;;;;13.62;9.23;;;;;;;5.78;85.20;100338.70;1751071;81;25968;-61
2022/11/23 09:02:22;;;;;;;16.73;10.08;;;;;;;5.75;85.21;100337.59;1749523;81;25709;-61
2022/11/23 09:04:49;;;;;;;14.18;9.13;;;;;;;5.75;85.21;100334.92;1750404;81;25800;-61
2022/11/23 09:07:16;;;;;;;15.70;9.95;;;;;;;5.74;85.32;100322.53;1749239;80;25510;-61
2022/11/23 09:09:42;;;;;;;14.05;9.18;;;;;;;5.73;85.25;100319.50;1744421;81;27524;-61
2022/11/23 09:12:09;;;;;;;15.95;10.18;;;;;;;5.72;85.52;100317.79;1741128;81;25737;-61
2022/11/23 09:14:35;;;;;;;13.93;9.70;;;;;;;5.78;85.68;100326.69;1741132;81;25745;-61
2022/11/23 09:17:03;;;;;;;12.90;9.30;;;;;;;5.80;85.62;100319.39;1749497;81;25830;-61
2022/11/23 09:19:30;;;;;;;15.15;9.15;;;;;;;5.83;85.59;100318.34;1756432;81;25864;-61
2022/11/23 09:21:57;;;;;;;16.30;11.05;;;;;;;5.83;85.66;100309.83;1756202;81;27465;-61
2022/11/23 09:24:26;;;;;;;16.35;11.73;;;;;;;5.88;85.75;100308.14;1756036;81;25857;-61
2022/11/23 09:26:53;;;;;;;13.43;9.40;;;;;;;5.85;85.78;100309.70;1756248;81;25788;-61
2022/11/23 09:29:20;;;;;;;14.85;10.43;;;;;;;5.85;85.72;100302.56;1756180;81;25800;-61
2022/11/23 09:31:47;;;;;;;14.63;9.78;;;;;;;5.83;85.94;100296.48;1756796;81;25863;-61
2022/11/23 09:34:13;;;;;;;14.50;8.83;;;;;;;5.84;85.95;100295.52;1756313;81;27940;-61
2022/11/23 09:36:41;;;;;;;13.53;8.95;;;;;;;5.89;85.87;100304.02;1756363;81;25485;-61
2022/11/23 09:39:08;;;;;;;14.95;9.85;;;;;;;5.96;86.16;100297.23;1754551;80;26399;-61
2022/11/23 09:42:12;;;;;;;17.75;10.48;;;;;;;6.04;85.86;100285.16;1761737;80;25867;-61
2022/11/23 09:44:53;;;;;;;14.73;9.95;;;;;;;6.06;85.61;100288.07;1763261;80;25743;-61
2022/11/23 09:47:41;;;;;;;15.65;9.55;;;;;;;6.13;85.64;100279.10;1702662;82;27573;-61
2022/11/23 09:50:13;;;;;;;17.35;11.70;;;;;;;6.14;85.39;100279.44;1734196;81;25721;-61
2022/11/23 09:52:44;;;;;;;24.60;12.28;;;;;;;6.12;85.48;100270.72;1803006;79;25676;-61
2022/11/23 09:55:32;;;;;;;26.25;12.37;;;;;;;6.10;85.37;100264.14;1802826;79;25774;-61
2022/11/23 09:58:03;;;;;;;20.55;11.88;;;;;;;6.09;85.16;100266.95;1802968;79;26360;-61
2022/11/23 10:00:37;;;;;;;19.25;12.10;;;;;;;6.10;85.37;100256.63;1802472;79;27681;-61
2022/11/23 10:03:04;;;;;;;43.05;24.45;;;;;;;6.11;85.41;100257.84;1803040;79;25746;-61
2022/11/23 10:05:36;;;;;;;20.75;13.38;;;;;;;6.14;85.40;100249.23;1800415;79;25842;-61
2022/11/23 10:08:35;;;;;;;20.27;12.23;;;;;;;6.19;85.43;100249.70;1791102;78;25907;-61
2022/11/23 10:11:10;;;;;;;17.25;10.80;;;;;;;6.25;85.46;100249.24;1770531;79;25464;-60
2022/11/23 10:13:48;;;;;;;17.73;11.48;;;;;;;6.22;85.13;100242.33;1760969;80;28563;-61
2022/11/23 10:16:59;;;;;;;19.45;12.25;;;;;;;6.19;85.25;100231.88;1763233;80;25747;-61
2022/11/23 10:19:52;;;;;;;15.95;11.38;;;;;;;6.21;85.53;100219.72;1776481;79;25786;-61
2022/11/23 10:22:39;;;;;;;17.62;11.65;;;;;;;6.25;85.46;100214.02;1759890;80;26451;-61
2022/11/23 10:25:16;;;;;;;19.42;10.53;;;;;;;6.25;85.57;100203.83;1759473;81;25628;-61
2022/11/23 10:27:50;;;;;;;17.60;10.88;;;;;;;6.19;85.50;100206.50;1758817;81;27843;-61
2022/11/23 10:30:19;;;;;;;13.78;9.48;;;;;;;6.15;85.77;100203.69;1772831;79;25746;-61
2022/11/23 10:32:54;;;;;;;13.20;9.40;;;;;;;6.14;85.71;100207.83;1802605;79;25776;-61
2022/11/23 10:35:34;;;;;;;14.43;9.70;;;;;;;6.12;85.87;100206.63;1799357;79;25825;-62
2022/11/23 10:38:14;;;;;;;18.37;10.80;;;;;;;6.13;86.07;100212.34;1759336;80;25767;-61
2022/11/23 10:41:01;;;;;;;17.98;12.03;;;;;;;6.14;85.94;100203.33;1795936;79;27453;-61
2022/11/23 10:43:41;;;;;;;25.48;10.70;;;;;;;6.12;85.74;100191.94;1755562;79;25667;-61
2022/11/23 10:46:32;;;;;;;17.87;10.18;;;;;;;6.12;86.00;100187.94;1763133;79;25804;-61
2022/11/23 10:49:28;;;;;;;15.63;10.25;;;;;;;6.16;86.25;100185.37;1746618;79;27996;-61
2022/11/23 10:52:05;;;;;;;17.40;10.43;;;;;;;6.22;86.22;100177.36;1796799;79;25774;-61
2022/11/23 10:54:46;;;;;;;15.28;9.43;;;;;;;6.23;86.17;100173.72;1797500;79;27439;-61
2022/11/23 10:57:28;;;;;;;19.82;10.05;;;;;;;6.25;86.36;100163.27;1765671;79;25748;-61
2022/11/23 11:00:07;;;;;;;14.18;9.03;;;;;;;6.26;86.51;100164.13;1762924;81;25786;-61
2022/11/23 11:02:49;;;;;;;15.48;10.05;;;;;;;6.25;86.70;100142.40;1752479;81;25893;-61
2022/11/23 11:05:38;;;;;;;17.50;10.45;;;;;;;6.26;86.99;100140.92;1763646;81;25744;-61
2022/11/23 11:08:16;;;;;;;17.40;9.75;;;;;;;6.33;87.28;100133.27;1744975;82;27636;-61
2022/11/23 11:11:09;;;;;;;13.10;9.10;;;;;;;6.38;86.97;100132.40;1742918;81;25830;-61
2022/11/23 11:13:46;;;;;;;12.90;8.53;;;;;;;6.36;86.97;100131.70;1745173;82;25751;-61
2022/11/23 11:16:35;;;;;;;15.40;8.53;;;;;;;6.39;87.27;100138.61;1767321;80;25778;-61
2022/11/23 11:19:32;;;;;;;17.02;9.58;;;;;;;6.42;87.35;100137.00;1774711;80;25754;-61
2022/11/23 11:22:05;;;;;;;14.13;8.70;;;;;;;6.40;86.99;100129.13;1774767;80;27434;-61
2022/11/23 11:24:41;;;;;;;14.73;9.00;;;;;;;6.39;87.03;100130.59;1771445;80;25761;-61
2022/11/23 11:27:23;;;;;;;14.23;9.08;;;;;;;6.37;87.17;100132.03;1767707;80;25830;-60
2022/11/23 11:30:06;;;;;;;15.93;8.78;;;;;;;6.36;87.26;100118.81;1762535;81;25762;-60
2022/11/23 11:32:51;;;;;;;17.87;9.28;;;;;;;6.39;87.36;100122.08;1762533;81;25766;-60
2022/11/23 11:35:35;;;;;;;20.12;11.05;;;;;;;6.45;87.43;100124.73;1763831;81;27482;-61